Time;durP1;ratioP1;P1;durP2;ratioP2;P2;SDS_P1;SDS_P2;PMS_P1;PMS_P2;Temp;Humidity;BMP_temperature;BMP_pressure;BME280_temperature;BME280_humidity;BME280_pressure;Samples;Min_cycle;Max_cycle;Signal;HPM_P1;HPM_P2
2021/07/05 00:02:14;;;;;;;3.23;2.93;;;23.10;48.90;;;;;;5126730;28;20031;-41
2021/07/05 00:04:41;;;;;;;3.17;2.95;;;23.10;49.20;;;;;;5126668;27;21052;-41
2021/07/05 00:07:07;;;;;;;3.25;2.95;;;23.10;49.80;;;;;;5126783;28;20035;-41
2021/07/05 00:09:34;;;;;;;3.53;3.23;;;23.10;50.00;;;;;;5126895;28;20124;-41
2021/07/05 00:12:00;;;;;;;3.22;3.00;;;23.10;50.20;;;;;;5126332;28;20042;-42
2021/07/05 00:14:26;;;;;;;3.50;3.00;;;23.10;50.00;;;;;;5126657;28;20027;-41
2021/07/05 00:16:53;;;;;;;3.40;3.10;;;23.10;50.20;;;;;;5126422;28;20569;-41
2021/07/05 00:19:19;;;;;;;3.03;2.73;;;23.10;50.60;;;;;;5126233;28;20046;-42
2021/07/05 00:21:46;;;;;;;3.33;3.03;;;23.10;50.20;;;;;;5126406;28;20065;-42
2021/07/05 00:24:12;;;;;;;3.13;2.93;;;23.00;49.80;;;;;;5126158;28;20260;-41
2021/07/05 00:26:38;;;;;;;2.88;2.67;;;23.00;50.80;;;;;;5126400;28;20043;-42
2021/07/05 00:29:04;;;;;;;3.17;2.97;;;23.00;48.80;;;;;;5126240;28;20769;-42
2021/07/05 00:31:30;;;;;;;3.30;3.00;;;22.90;48.50;;;;;;5126262;28;20042;-42
2021/07/05 00:33:57;;;;;;;3.38;3.08;;;22.90;48.50;;;;;;5124523;28;20087;-42
2021/07/05 00:36:23;;;;;;;3.35;3.05;;;22.80;48.70;;;;;;5124660;28;20038;-42
2021/07/05 00:38:49;;;;;;;3.08;2.88;;;22.90;48.30;;;;;;5126062;28;20023;-42
2021/07/05 00:41:15;;;;;;;3.05;2.85;;;22.80;48.20;;;;;;5126204;28;20027;-41
2021/07/05 00:43:41;;;;;;;3.22;3.00;;;22.80;47.50;;;;;;5125834;28;20066;-42
2021/07/05 00:46:07;;;;;;;3.15;2.85;;;22.70;48.10;;;;;;5125715;28;20031;-42
2021/07/05 00:48:33;;;;;;;3.30;3.00;;;22.70;47.80;;;;;;5125900;28;20024;-43
2021/07/05 00:51:00;;;;;;;3.28;3.05;;;22.70;47.50;;;;;;5125846;28;20114;-42
2021/07/05 00:53:26;;;;;;;3.00;2.80;;;22.70;48.20;;;;;;5125747;28;20030;-42
2021/07/05 00:55:52;;;;;;;3.38;3.08;;;22.70;48.80;;;;;;5125770;28;20039;-41
2021/07/05 00:58:19;;;;;;;3.45;3.15;;;22.70;48.90;;;;;;5124568;28;20019;-42
2021/07/05 01:00:45;;;;;;;3.28;2.97;;;22.70;50.40;;;;;;5125963;28;20024;-43
2021/07/05 01:03:11;;;;;;;3.08;2.80;;;22.70;49.80;;;;;;5125597;28;20893;-42
2021/07/05 01:05:38;;;;;;;3.10;2.88;;;22.70;49.80;;;;;;5125684;28;20105;-43
2021/07/05 01:08:04;;;;;;;3.40;3.10;;;22.60;50.20;;;;;;5124049;28;20511;-43
2021/07/05 01:10:31;;;;;;;3.10;2.87;;;22.60;49.80;;;;;;5124177;28;20059;-43
2021/07/05 01:12:57;;;;;;;3.30;3.00;;;22.50;49.70;;;;;;5125466;28;20280;-43
2021/07/05 01:15:26;;;;;;;3.50;3.20;;;22.50;49.30;;;;;;5125486;28;20077;-42
2021/07/05 01:17:53;;;;;;;3.30;3.00;;;22.50;50.70;;;;;;5125420;28;20307;-43
2021/07/05 01:20:21;;;;;;;3.35;3.08;;;22.40;51.80;;;;;;5125192;28;20830;-42
2021/07/05 01:22:47;;;;;;;3.45;3.15;;;22.40;53.00;;;;;;5123914;28;20043;-43
2021/07/05 01:25:16;;;;;;;3.33;3.03;;;22.40;53.80;;;;;;5124987;28;20028;-41
2021/07/05 01:27:42;;;;;;;3.50;3.20;;;22.40;54.60;;;;;;5125030;28;20031;-41
2021/07/05 01:30:09;;;;;;;3.07;2.77;;;22.40;55.20;;;;;;5125378;28;20049;-42
2021/07/05 01:32:35;;;;;;;3.10;2.80;;;22.40;56.00;;;;;;5125059;28;20056;-43
2021/07/05 01:35:01;;;;;;;3.10;2.90;;;22.40;56.50;;;;;;5124898;27;20027;-38
2021/07/05 01:37:27;;;;;;;2.75;2.55;;;22.40;57.10;;;;;;5124955;28;20043;-40
2021/07/05 01:39:53;;;;;;;3.10;2.85;;;22.40;57.30;;;;;;5105470;28;20031;-40
2021/07/05 01:42:20;;;;;;;3.00;2.80;;;22.40;57.80;;;;;;5104527;28;20050;-40
2021/07/05 01:44:47;;;;;;;3.42;3.13;;;22.40;57.90;;;;;;5106729;28;20032;-40
2021/07/05 01:47:13;;;;;;;3.25;2.95;;;22.40;58.30;;;;;;5124884;27;20024;-41
2021/07/05 01:49:44;;;;;;;3.38;3.08;;;22.40;58.20;;;;;;5124816;28;20030;-41
2021/07/05 01:52:11;;;;;;;3.10;2.90;;;22.40;58.30;;;;;;5124859;28;20046;-39
2021/07/05 01:54:37;;;;;;;3.17;2.88;;;22.40;58.40;;;;;;5122997;28;20027;-40
2021/07/05 01:57:03;;;;;;;3.40;3.10;;;22.40;58.50;;;;;;5124695;28;20110;-42
2021/07/05 01:59:29;;;;;;;3.50;3.20;;;22.40;58.50;;;;;;5124695;28;20031;-42
2021/07/05 02:01:56;;;;;;;3.38;3.08;;;22.50;58.60;;;;;;5124635;28;20043;-43
2021/07/05 02:04:25;;;;;;;3.40;3.10;;;22.50;59.00;;;;;;5124334;28;20042;-43
2021/07/05 02:06:51;;;;;;;3.47;2.97;;;22.50;58.90;;;;;;5122606;28;20024;-42
2021/07/05 02:09:17;;;;;;;3.00;2.80;;;22.40;59.30;;;;;;5124169;28;20032;-43
2021/07/05 02:11:43;;;;;;;3.28;2.97;;;22.50;59.60;;;;;;5124335;28;20039;-43
2021/07/05 02:14:10;;;;;;;3.13;2.83;;;22.50;60.00;;;;;;5123982;28;20023;-40
2021/07/05 02:16:36;;;;;;;2.67;2.47;;;22.50;59.60;;;;;;5124273;28;20031;-41
2021/07/05 02:19:04;;;;;;;3.55;3.25;;;22.50;60.00;;;;;;5124020;28;20077;-40
2021/07/05 02:21:30;;;;;;;3.42;3.15;;;22.50;60.00;;;;;;5124323;28;20024;-40
2021/07/05 02:23:58;;;;;;;3.50;3.20;;;22.50;60.00;;;;;;5123706;28;20051;-39
2021/07/05 02:26:24;;;;;;;3.47;3.17;;;22.50;60.40;;;;;;5123972;28;20031;-39
2021/07/05 02:28:51;;;;;;;3.30;3.00;;;22.50;60.50;;;;;;5124271;28;20034;-39
2021/07/05 02:31:17;;;;;;;3.30;3.00;;;22.40;60.70;;;;;;5123946;28;20522;-42
2021/07/05 02:33:43;;;;;;;4.07;3.10;;;22.50;60.80;;;;;;5123839;28;20118;-43
2021/07/05 02:36:09;;;;;;;3.53;3.22;;;22.50;60.70;;;;;;5123613;28;20036;-42
2021/07/05 02:38:37;;;;;;;3.43;3.13;;;22.50;60.80;;;;;;5122898;28;20132;-41
2021/07/05 02:41:04;;;;;;;3.10;2.88;;;22.50;60.90;;;;;;5123791;28;20248;-42
2021/07/05 02:43:30;;;;;;;3.55;3.25;;;22.50;60.80;;;;;;5123753;28;20034;-41
2021/07/05 02:45:57;;;;;;;3.83;3.53;;;22.50;60.70;;;;;;5121959;28;20023;-42
2021/07/05 02:48:24;;;;;;;4.63;4.18;;;22.50;60.90;;;;;;5123840;28;20032;-42
2021/07/05 02:50:54;;;;;;;4.53;4.10;;;22.50;60.90;;;;;;5123420;28;20036;-41
2021/07/05 02:53:20;;;;;;;4.88;4.38;;;22.50;61.10;;;;;;5123433;28;20024;-40
2021/07/05 02:55:46;;;;;;;7.03;6.32;;;22.50;61.10;;;;;;5123288;28;20019;-41
2021/07/05 02:58:12;;;;;;;9.30;8.40;;;22.50;62.00;;;;;;5123598;28;20031;-43
2021/07/05 03:00:40;;;;;;;9.23;8.30;;;22.50;62.10;;;;;;5123639;28;20476;-40
2021/07/05 03:03:07;;;;;;;10.88;9.88;;;22.50;62.60;;;;;;5123619;28;20034;-41
2021/07/05 03:05:33;;;;;;;12.03;10.83;;;22.50;62.70;;;;;;5122970;28;20034;-42
2021/07/05 03:08:00;;;;;;;12.05;10.88;;;22.50;62.90;;;;;;5121933;28;20133;-42
2021/07/05 03:10:35;;;;;;;11.77;10.60;;;22.40;62.80;;;;;;5123289;28;20028;-41
2021/07/05 03:13:02;;;;;;;12.02;10.93;;;22.40;62.80;;;;;;5123187;28;20038;-42
2021/07/05 03:15:28;;;;;;;12.30;11.05;;;22.40;63.20;;;;;;5123178;28;20019;-41
2021/07/05 03:17:57;;;;;;;12.45;11.25;;;22.40;63.20;;;;;;5121811;28;20032;-42
2021/07/05 03:20:25;;;;;;;12.25;11.05;;;22.40;63.20;;;;;;5122691;28;20079;-43
2021/07/05 03:22:52;;;;;;;11.35;10.35;;;22.40;63.20;;;;;;5123152;28;20035;-41
2021/07/05 03:25:20;;;;;;;10.65;9.35;;;22.40;63.10;;;;;;5123052;28;20024;-41
2021/07/05 03:27:47;;;;;;;10.38;9.38;;;22.40;62.90;;;;;;5123107;28;20031;-42
2021/07/05 03:30:13;;;;;;;11.48;10.27;;;22.50;62.70;;;;;;5123276;28;20023;-41
2021/07/05 03:32:40;;;;;;;10.73;9.73;;;22.40;62.50;;;;;;5123220;28;20040;-41
2021/07/05 03:35:07;;;;;;;10.70;9.70;;;22.40;62.60;;;;;;5122405;28;20032;-42
2021/07/05 03:37:34;;;;;;;10.43;9.43;;;22.50;62.70;;;;;;5121665;28;20024;-42
2021/07/05 03:40:00;;;;;;;11.27;10.17;;;22.50;62.90;;;;;;5103084;28;20073;-42
2021/07/05 03:42:29;;;;;;;11.50;9.93;;;22.50;62.90;;;;;;5102493;28;20028;-42
2021/07/05 03:44:55;;;;;;;11.00;9.88;;;22.40;62.80;;;;;;5106348;28;20630;-42
2021/07/05 03:47:21;;;;;;;10.27;9.27;;;22.40;62.50;;;;;;5122662;28;20050;-41
2021/07/05 03:49:48;;;;;;;11.45;10.35;;;22.40;62.60;;;;;;5122819;28;20030;-42
2021/07/05 03:52:14;;;;;;;11.30;10.20;;;22.40;63.40;;;;;;5121521;28;20408;-41
2021/07/05 03:54:40;;;;;;;12.43;11.23;;;22.40;63.50;;;;;;5122884;28;20020;-42
2021/07/05 03:57:06;;;;;;;11.93;10.73;;;22.40;63.80;;;;;;5122829;28;20030;-42
2021/07/05 03:59:32;;;;;;;11.82;10.65;;;22.40;63.80;;;;;;5122943;28;20031;-42
2021/07/05 04:01:59;;;;;;;11.68;10.57;;;22.40;64.00;;;;;;5122822;28;20027;-42
2021/07/05 04:04:25;;;;;;;11.45;10.38;;;22.40;64.10;;;;;;5122594;28;20103;-42
2021/07/05 04:06:52;;;;;;;11.57;10.48;;;22.40;64.70;;;;;;5121005;28;20023;-41
2021/07/05 04:09:21;;;;;;;11.55;10.45;;;22.40;64.10;;;;;;5122862;28;20027;-42
2021/07/05 04:11:47;;;;;;;11.30;10.20;;;22.40;63.90;;;;;;5122551;28;20059;-42
2021/07/05 04:14:14;;;;;;;12.15;11.05;;;22.40;64.20;;;;;;5122855;28;20024;-41
2021/07/05 04:16:40;;;;;;;11.43;10.32;;;22.40;64.00;;;;;;5122482;28;20059;-40
2021/07/05 04:19:06;;;;;;;11.38;10.27;;;22.40;64.20;;;;;;5122435;28;20054;-41
2021/07/05 04:21:32;;;;;;;11.05;10.05;;;22.30;64.10;;;;;;5122818;28;20666;-42
2021/07/05 04:23:58;;;;;;;10.55;9.55;;;22.40;64.00;;;;;;5122850;28;20043;-41
2021/07/05 04:26:24;;;;;;;10.77;9.75;;;22.40;64.00;;;;;;5122419;28;20027;-42
2021/07/05 04:28:51;;;;;;;10.93;9.93;;;22.40;64.00;;;;;;5122583;28;20024;-41
2021/07/05 04:31:17;;;;;;;10.77;9.68;;;22.30;63.40;;;;;;5122687;28;20031;-42
2021/07/05 04:33:43;;;;;;;10.88;9.77;;;22.40;63.60;;;;;;5126027;28;20055;-42
2021/07/05 04:36:09;;;;;;;11.65;10.55;;;22.40;63.70;;;;;;5125901;28;20020;-42
2021/07/05 04:38:35;;;;;;;10.77;9.77;;;22.30;63.90;;;;;;5126032;28;20072;-41
2021/07/05 04:41:03;;;;;;;11.55;10.45;;;22.40;64.10;;;;;;5126316;28;20108;-42
2021/07/05 04:43:30;;;;;;;12.18;10.93;;;22.40;64.50;;;;;;5126105;28;20039;-42
2021/07/05 04:46:02;;;;;;;11.40;10.27;;;22.30;64.40;;;;;;5125888;28;20027;-42
2021/07/05 04:48:28;;;;;;;12.40;11.20;;;22.30;64.60;;;;;;5125744;28;20375;-43
2021/07/05 04:50:55;;;;;;;12.02;10.82;;;22.30;64.80;;;;;;5125672;28;20120;-41
2021/07/05 04:53:23;;;;;;;12.25;11.00;;;22.30;64.80;;;;;;5126072;28;20031;-42
2021/07/05 04:55:49;;;;;;;13.32;11.50;;;22.30;65.00;;;;;;5126038;28;20030;-41
2021/07/05 04:58:15;;;;;;;13.15;11.85;;;22.30;65.00;;;;;;5124082;28;20035;-42
2021/07/05 05:00:41;;;;;;;12.80;11.55;;;22.30;65.00;;;;;;5125947;28;20028;-42
2021/07/05 05:03:07;;;;;;;13.07;11.80;;;22.30;65.00;;;;;;5124439;28;20024;-41
2021/07/05 05:05:34;;;;;;;13.40;12.13;;;22.30;65.20;;;;;;5125635;28;20027;-40
2021/07/05 05:08:00;;;;;;;14.23;12.83;;;22.30;65.20;;;;;;5125125;28;20049;-41
2021/07/05 05:10:26;;;;;;;13.00;11.77;;;22.30;65.20;;;;;;5125771;28;20263;-42
2021/07/05 05:12:53;;;;;;;13.40;12.05;;;22.30;65.10;;;;;;5123988;28;20040;-41
2021/07/05 05:15:19;;;;;;;13.90;12.60;;;22.30;65.20;;;;;;5125815;28;20051;-41
2021/07/05 05:17:46;;;;;;;12.83;11.63;;;22.30;65.30;;;;;;5125091;28;20034;-42
2021/07/05 05:20:13;;;;;;;12.57;11.43;;;22.30;65.10;;;;;;5125399;28;20034;-42
2021/07/05 05:22:40;;;;;;;13.43;12.10;;;22.30;65.30;;;;;;5125427;28;20031;-42
2021/07/05 05:25:07;;;;;;;13.43;12.10;;;22.30;65.20;;;;;;5125373;27;20032;-41
2021/07/05 05:27:33;;;;;;;13.55;12.27;;;22.20;64.80;;;;;;5123755;28;20032;-42
2021/07/05 05:30:00;;;;;;;14.55;13.10;;;22.30;65.20;;;;;;5125296;28;20028;-40
2021/07/05 05:32:26;;;;;;;14.23;12.80;;;22.30;65.20;;;;;;5123824;28;20035;-42
2021/07/05 05:34:52;;;;;;;14.20;12.80;;;22.30;65.20;;;;;;5124996;28;20031;-41
2021/07/05 05:37:18;;;;;;;14.98;13.38;;;22.30;65.10;;;;;;5124761;28;20023;-42
2021/07/05 05:39:44;;;;;;;15.43;13.95;;;22.30;65.50;;;;;;5125142;28;20091;-40
2021/07/05 05:42:11;;;;;;;16.67;15.10;;;22.20;65.70;;;;;;5125005;28;20035;-41
2021/07/05 05:44:37;;;;;;;17.17;15.48;;;22.20;65.80;;;;;;5124356;28;20020;-41
2021/07/05 05:47:03;;;;;;;17.25;15.57;;;22.20;65.90;;;;;;5123305;28;20028;-41
2021/07/05 05:49:29;;;;;;;17.25;15.55;;;22.20;65.80;;;;;;5125077;27;20024;-42
2021/07/05 05:51:55;;;;;;;16.52;14.93;;;22.20;65.90;;;;;;5125043;28;20045;-41
2021/07/05 05:54:21;;;;;;;17.48;15.68;;;22.20;66.00;;;;;;5124847;28;20028;-41
2021/07/05 05:56:52;;;;;;;17.58;15.82;;;22.20;66.10;;;;;;5123975;28;20039;-41
2021/07/05 05:59:18;;;;;;;17.90;16.15;;;22.20;66.00;;;;;;5124231;28;20024;-42
2021/07/05 06:01:50;;;;;;;17.43;15.80;;;22.20;66.10;;;;;;5124602;28;20515;-42
2021/07/05 06:04:23;;;;;;;17.70;16.00;;;22.20;66.20;;;;;;5124625;27;20765;-42
2021/07/05 06:06:52;;;;;;;18.10;16.30;;;22.20;66.10;;;;;;5123889;27;20036;-41
2021/07/05 06:09:18;;;;;;;17.88;16.10;;;22.20;66.00;;;;;;5122766;28;20041;-42
2021/07/05 06:11:44;;;;;;;17.90;16.05;;;22.20;66.10;;;;;;5124349;28;20113;-42
2021/07/05 06:14:10;;;;;;;17.75;15.95;;;22.20;65.90;;;;;;5124450;28;20035;-42
2021/07/05 06:16:36;;;;;;;18.65;16.83;;;22.20;66.00;;;;;;5122952;28;20034;-43
2021/07/05 06:19:03;;;;;;;17.73;15.80;;;22.20;66.10;;;;;;5123958;28;20059;-41
2021/07/05 06:21:31;;;;;;;17.85;16.10;;;22.20;66.00;;;;;;5122632;28;20087;-41
2021/07/05 06:23:58;;;;;;;17.50;15.80;;;22.20;65.70;;;;;;5124344;28;20035;-41
2021/07/05 06:26:24;;;;;;;17.73;16.03;;;22.20;66.00;;;;;;5123982;28;20024;-42
2021/07/05 06:28:50;;;;;;;17.92;16.15;;;22.20;66.10;;;;;;5123869;28;20032;-42
2021/07/05 06:31:18;;;;;;;19.50;17.53;;;22.20;66.00;;;;;;5124287;28;20046;-41
2021/07/05 06:33:45;;;;;;;20.35;18.35;;;22.20;66.20;;;;;;5124033;28;20055;-42
2021/07/05 06:36:12;;;;;;;21.33;19.15;;;22.20;66.50;;;;;;5123605;28;20027;-41
2021/07/05 06:38:39;;;;;;;21.40;19.25;;;22.20;66.60;;;;;;5123762;28;20026;-42
2021/07/05 06:41:05;;;;;;;21.50;19.40;;;22.20;66.90;;;;;;5123905;27;20047;-42
2021/07/05 06:43:31;;;;;;;21.90;19.70;;;22.10;66.60;;;;;;5123932;28;20031;-42
2021/07/05 06:45:58;;;;;;;22.52;20.33;;;22.20;67.20;;;;;;5123775;28;20599;-42
2021/07/05 06:48:25;;;;;;;23.33;20.92;;;22.10;66.80;;;;;;5123341;28;20402;-41
2021/07/05 06:50:51;;;;;;;23.17;20.98;;;22.10;67.20;;;;;;5123548;28;20095;-41
2021/07/05 06:53:17;;;;;;;23.25;20.95;;;22.10;67.20;;;;;;5123562;28;20042;-42
2021/07/05 06:55:43;;;;;;;22.02;19.83;;;22.10;67.00;;;;;;5122572;28;20030;-42
2021/07/05 06:58:09;;;;;;;23.15;20.85;;;22.10;67.10;;;;;;5123252;28;20027;-42
2021/07/05 07:00:36;;;;;;;23.85;21.45;;;22.10;67.00;;;;;;5123743;28;20030;-42
2021/07/05 07:03:04;;;;;;;22.60;20.30;;;22.10;66.60;;;;;;5123655;28;20744;-42
2021/07/05 07:05:33;;;;;;;22.10;19.88;;;22.10;67.00;;;;;;5123237;28;20042;-41
2021/07/05 07:07:59;;;;;;;21.45;19.35;;;22.10;66.90;;;;;;5120146;28;20582;-41
2021/07/05 07:10:26;;;;;;;22.73;20.42;;;22.10;66.60;;;;;;5123342;28;20019;-40
2021/07/05 07:12:54;;;;;;;22.83;20.63;;;22.10;66.70;;;;;;5121835;28;20043;-42
2021/07/05 07:15:26;;;;;;;21.73;19.52;;;22.10;66.50;;;;;;5121998;28;20031;-43
2021/07/05 07:18:32;;;;;;;21.30;19.17;;;22.10;66.50;;;;;;5121714;28;20039;-41
2021/07/05 07:20:57;;;;;;;22.50;20.25;;;22.10;66.80;;;;;;5123055;28;20078;-42
2021/07/05 07:23:23;;;;;;;22.70;20.58;;;22.10;67.00;;;;;;5123458;28;20035;-43
2021/07/05 07:25:49;;;;;;;22.98;20.77;;;22.10;67.40;;;;;;5123268;28;20087;-42
2021/07/05 07:28:15;;;;;;;23.42;21.20;;;22.10;67.40;;;;;;5122952;28;20026;-41
2021/07/05 07:30:42;;;;;;;24.58;22.17;;;22.10;67.50;;;;;;5123273;28;20032;-41
2021/07/05 07:33:08;;;;;;;23.50;21.20;;;22.00;67.60;;;;;;5123368;28;20084;-41
2021/07/05 07:35:34;;;;;;;24.98;22.58;;;22.00;67.80;;;;;;5122811;28;20053;-42
2021/07/05 07:38:01;;;;;;;25.63;23.10;;;22.00;67.50;;;;;;5123230;28;20032;-42
2021/07/05 07:40:31;;;;;;;24.10;21.58;;;22.00;67.60;;;;;;5121207;28;20113;-42
2021/07/05 07:42:57;;;;;;;24.98;22.50;;;22.00;67.70;;;;;;5122994;28;20053;-41
2021/07/05 07:45:23;;;;;;;24.98;22.48;;;22.00;67.80;;;;;;5123093;28;20028;-42
2021/07/05 07:47:49;;;;;;;24.63;22.23;;;22.00;67.60;;;;;;5123003;28;20028;-42
2021/07/05 07:50:17;;;;;;;25.05;22.55;;;22.00;67.60;;;;;;5122860;28;20035;-42
2021/07/05 07:52:43;;;;;;;24.27;21.95;;;22.00;67.50;;;;;;5122891;28;20032;-41
2021/07/05 07:55:10;;;;;;;24.30;21.90;;;22.00;67.30;;;;;;5123190;28;20026;-42
2021/07/05 07:57:37;;;;;;;24.65;22.30;;;22.00;67.20;;;;;;5121515;28;20031;-42
2021/07/05 08:00:06;;;;;;;24.48;22.17;;;22.00;67.10;;;;;;5122801;28;20081;-42
2021/07/05 08:02:32;;;;;;;24.25;21.85;;;22.00;67.30;;;;;;5122946;28;20036;-41
2021/07/05 08:04:58;;;;;;;23.77;21.42;;;22.00;67.10;;;;;;5121236;28;20023;-42
2021/07/05 08:07:24;;;;;;;23.98;21.67;;;22.00;67.10;;;;;;5123881;28;20062;-42
2021/07/05 08:09:53;;;;;;;24.30;21.85;;;22.00;67.10;;;;;;5126430;27;20439;-42
2021/07/05 08:12:19;;;;;;;23.95;21.65;;;22.00;67.10;;;;;;5126616;28;20103;-42
2021/07/05 08:14:45;;;;;;;23.73;21.52;;;22.00;67.40;;;;;;5126962;28;20035;-41
2021/07/05 08:17:11;;;;;;;25.27;22.75;;;21.90;67.50;;;;;;5126598;28;20636;-42
2021/07/05 08:19:37;;;;;;;24.55;22.15;;;21.90;67.90;;;;;;5126212;28;20069;-41
2021/07/05 08:22:04;;;;;;;24.05;21.73;;;21.90;68.00;;;;;;5126771;28;20023;-42
2021/07/05 08:24:30;;;;;;;26.08;23.48;;;21.90;68.20;;;;;;5126686;28;20027;-42
2021/07/05 08:26:56;;;;;;;25.00;22.60;;;21.90;68.00;;;;;;5126592;28;20030;-42
2021/07/05 08:29:22;;;;;;;25.60;22.70;;;21.90;67.80;;;;;;5126310;28;20036;-43
2021/07/05 08:31:48;;;;;;;25.55;23.10;;;21.90;67.80;;;;;;5126228;28;20571;-41
2021/07/05 08:34:15;;;;;;;24.63;22.33;;;21.90;67.80;;;;;;5126428;28;20028;-41
2021/07/05 08:36:41;;;;;;;24.85;22.45;;;21.90;67.80;;;;;;5126079;28;20032;-43
2021/07/05 08:39:08;;;;;;;25.42;23.02;;;21.90;67.60;;;;;;5125028;28;20047;-41
2021/07/05 08:41:34;;;;;;;;;;;21.90;67.50;;;;;;5126584;28;20031;-42
2021/07/05 08:44:00;;;;;;;24.90;22.48;;;21.90;67.50;;;;;;5126179;28;19911;-42
2021/07/05 08:46:26;;;;;;;24.38;22.00;;;21.90;67.40;;;;;;5124509;28;20032;-42
2021/07/05 08:48:53;;;;;;;25.25;22.75;;;21.90;67.50;;;;;;5107577;28;20152;-42
2021/07/05 08:51:21;;;;;;;24.52;22.05;;;21.90;67.40;;;;;;5125700;28;20054;-42
2021/07/05 08:53:48;;;;;;;25.42;22.83;;;21.80;67.40;;;;;;5125705;28;20034;-42
2021/07/05 08:56:14;;;;;;;25.95;23.35;;;21.80;67.40;;;;;;5124478;28;20808;-42
2021/07/05 08:58:41;;;;;;;25.92;23.38;;;21.80;67.40;;;;;;5125923;28;20635;-42
2021/07/05 09:01:09;;;;;;;25.70;23.17;;;21.80;67.50;;;;;;5125816;28;20026;-42
2021/07/05 09:03:36;;;;;;;24.33;22.00;;;21.80;67.60;;;;;;5125894;28;20035;-42
2021/07/05 09:06:15;;;;;;;24.98;22.45;;;21.80;67.70;;;;;;5125576;28;20027;-42
2021/07/05 09:09:05;;;;;;;26.00;23.52;;;21.80;68.00;;;;;;5125402;28;20063;-42
2021/07/05 09:11:48;;;;;;;25.38;22.90;;;21.80;68.10;;;;;;5095411;28;20044;-42
2021/07/05 09:14:19;;;;;;;26.33;23.73;;;21.80;68.00;;;;;;5105291;28;20058;-42
2021/07/05 09:16:46;;;;;;;26.05;23.55;;;21.80;67.90;;;;;;5123160;28;20084;-42
2021/07/05 09:19:22;;;;;;;26.77;24.02;;;21.80;67.90;;;;;;5124495;28;20052;-41
2021/07/05 09:21:53;;;;;;;26.20;23.73;;;21.80;68.00;;;;;;5125409;28;20028;-42
2021/07/05 09:24:36;;;;;;;26.45;23.85;;;21.80;67.90;;;;;;5124278;28;20055;-42
2021/07/05 09:27:10;;;;;;;25.67;23.10;;;21.80;67.80;;;;;;5125532;28;20042;-42
2021/07/05 09:29:38;;;;;;;25.83;23.42;;;21.80;68.00;;;;;;5125328;28;20032;-42
2021/07/05 09:32:06;;;;;;;26.48;23.85;;;21.80;67.90;;;;;;5125017;28;20035;-41
2021/07/05 09:34:37;;;;;;;27.30;24.60;;;21.80;67.80;;;;;;5122015;28;20031;-42
2021/07/05 09:37:23;;;;;;;27.60;24.95;;;21.80;67.90;;;;;;5125112;28;20031;-43
2021/07/05 09:40:05;;;;;;;27.65;24.85;;;21.80;67.80;;;;;;5125361;28;20031;-41
2021/07/05 09:42:33;;;;;;;26.60;23.92;;;21.80;68.00;;;;;;5125216;28;20046;-41
2021/07/05 09:45:00;;;;;;;25.10;22.73;;;21.70;68.00;;;;;;5125064;28;20020;-42
2021/07/05 09:47:27;;;;;;;26.27;23.67;;;21.70;67.90;;;;;;5125198;28;20035;-42
2021/07/05 09:49:59;;;;;;;27.45;24.75;;;21.70;68.00;;;;;;5125015;28;20032;-42
2021/07/05 09:52:26;;;;;;;26.08;23.52;;;21.70;68.20;;;;;;5123557;28;20042;-42
2021/07/05 09:54:57;;;;;;;28.10;25.35;;;21.70;68.10;;;;;;5125060;28;20062;-42
2021/07/05 09:57:32;;;;;;;26.50;23.90;;;21.70;68.20;;;;;;5124852;28;20042;-41
2021/07/05 10:00:07;;;;;;;28.38;25.55;;;21.70;68.10;;;;;;5124882;28;20016;-41
2021/07/05 10:02:36;;;;;;;28.05;25.25;;;21.70;68.00;;;;;;5124656;28;20084;-41
2021/07/05 10:05:19;;;;;;;27.95;25.15;;;21.70;68.10;;;;;;5123316;28;20035;-41
2021/07/05 10:07:56;;;;;;;27.58;24.95;;;21.70;68.30;;;;;;5123502;28;20059;-41
2021/07/05 10:10:22;;;;;;;26.33;23.83;;;21.70;68.20;;;;;;5134012;27;20035;-42
2021/07/05 10:12:53;;;;;;;27.52;24.73;;;21.70;68.30;;;;;;5104049;28;20076;-41
2021/07/05 10:15:19;;;;;;;26.92;24.23;;;21.70;68.40;;;;;;5111173;28;20026;-42
2021/07/05 10:17:46;;;;;;;25.93;23.43;;;21.70;68.40;;;;;;5123119;28;20023;-43
2021/07/05 10:20:14;;;;;;;26.38;23.73;;;21.60;68.50;;;;;;5124427;28;20069;-41
2021/07/05 10:22:41;;;;;;;26.25;23.75;;;21.60;68.40;;;;;;5124333;28;20376;-42
2021/07/05 10:25:08;;;;;;;27.15;24.55;;;21.60;68.40;;;;;;5124651;28;20051;-41
2021/07/05 10:27:34;;;;;;;26.48;23.88;;;21.60;68.50;;;;;;5124488;28;20028;-41
2021/07/05 10:30:03;;;;;;;26.92;24.23;;;21.60;68.50;;;;;;5124277;27;20503;-42
2021/07/05 10:32:29;;;;;;;26.88;24.23;;;21.60;68.60;;;;;;5122621;28;20040;-41
2021/07/05 10:34:55;;;;;;;27.13;24.42;;;21.60;68.50;;;;;;5105880;28;20031;-41
2021/07/05 10:37:29;;;;;;;26.20;23.67;;;21.60;68.60;;;;;;5105831;28;20023;-42
2021/07/05 10:39:55;;;;;;;26.83;24.13;;;21.60;68.70;;;;;;5123895;28;20034;-42
2021/07/05 10:42:57;;;;;;;27.35;24.73;;;21.60;68.70;;;;;;5122440;28;20031;-42
2021/07/05 10:45:37;;;;;;;25.35;22.80;;;21.60;68.80;;;;;;5122393;28;20028;-42
2021/07/05 10:48:04;;;;;;;27.08;24.38;;;21.60;68.80;;;;;;5124232;28;20016;-42
2021/07/05 10:50:43;;;;;;;28.02;25.23;;;21.60;68.80;;;;;;5122693;28;20039;-42
2021/07/05 10:53:10;;;;;;;27.35;24.55;;;21.60;68.90;;;;;;5123817;28;20039;-42
2021/07/05 10:55:48;;;;;;;27.20;24.52;;;21.50;68.80;;;;;;5123755;28;20027;-42
2021/07/05 10:58:26;;;;;;;26.10;23.50;;;21.50;68.90;;;;;;5123947;28;20167;-42
2021/07/05 11:01:00;;;;;;;26.30;23.70;;;21.50;68.90;;;;;;5123611;28;20028;-42
2021/07/05 11:03:39;;;;;;;26.52;23.83;;;21.50;68.90;;;;;;5122281;28;20113;-42
2021/07/05 11:06:10;;;;;;;26.90;24.13;;;21.50;69.00;;;;;;5123566;28;20035;-41
2021/07/05 11:08:44;;;;;;;27.38;24.50;;;21.50;69.00;;;;;;5123756;28;20114;-42
2021/07/05 11:11:17;;;;;;;27.38;24.75;;;21.50;69.00;;;;;;5123623;28;20094;-42
2021/07/05 11:13:44;;;;;;;27.38;24.67;;;21.50;69.00;;;;;;5123707;28;20043;-42
2021/07/05 11:16:10;;;;;;;27.48;24.83;;;21.50;68.90;;;;;;5122210;28;20035;-42
2021/07/05 11:18:40;;;;;;;26.33;23.73;;;21.50;69.10;;;;;;5123694;28;20099;-42
2021/07/05 11:21:29;;;;;;;26.88;24.23;;;21.50;69.10;;;;;;5123403;28;20023;-42
2021/07/05 11:24:00;;;;;;;26.95;24.38;;;21.50;69.20;;;;;;5083353;28;20020;-41
2021/07/05 11:26:35;;;;;;;28.17;25.38;;;21.50;69.50;;;;;;5123448;28;20044;-43
2021/07/05 11:29:17;;;;;;;26.67;23.90;;;21.50;69.30;;;;;;5123872;28;20034;-42
2021/07/05 11:31:52;;;;;;;26.52;24.00;;;21.50;69.40;;;;;;5123099;28;20031;-43
2021/07/05 11:34:33;;;;;;;27.70;25.00;;;21.50;69.50;;;;;;5123663;28;20034;-41
2021/07/05 11:37:11;;;;;;;27.20;24.55;;;21.50;69.60;;;;;;5122974;28;20027;-42
2021/07/05 11:39:42;;;;;;;27.65;24.95;;;21.40;69.50;;;;;;5123562;28;20124;-42
2021/07/05 11:42:12;;;;;;;27.30;24.63;;;21.40;69.40;;;;;;5124166;28;20031;-42
2021/07/05 11:44:56;;;;;;;27.92;25.23;;;21.50;69.50;;;;;;5127555;28;20019;-43
2021/07/05 11:47:38;;;;;;;27.55;24.85;;;21.40;69.50;;;;;;5127939;28;20054;-42
2021/07/05 11:50:28;;;;;;;28.17;25.38;;;21.40;69.40;;;;;;5127566;28;20032;-42
2021/07/05 11:53:01;;;;;;;28.35;25.55;;;21.40;69.50;;;;;;5127287;28;20515;-41
2021/07/05 11:55:31;;;;;;;28.05;25.15;;;21.40;69.70;;;;;;5126114;28;20073;-42
2021/07/05 11:57:59;;;;;;;27.00;24.38;;;21.40;69.60;;;;;;5127541;28;20515;-42
2021/07/05 12:00:27;;;;;;;27.77;25.00;;;21.40;69.50;;;;;;5127342;28;21046;-42
2021/07/05 12:03:10;;;;;;;26.95;24.35;;;21.40;69.50;;;;;;5127478;28;20027;-43
2021/07/05 12:05:42;;;;;;;27.65;24.95;;;21.40;69.50;;;;;;5127085;28;20019;-42
2021/07/05 12:08:10;;;;;;;27.42;24.73;;;21.40;69.60;;;;;;5122680;28;20050;-42
2021/07/05 12:10:39;;;;;;;26.90;24.30;;;21.40;69.70;;;;;;5123417;28;20026;-41
2021/07/05 12:13:19;;;;;;;27.75;25.13;;;21.40;69.70;;;;;;5126339;28;20091;-42
2021/07/05 12:16:00;;;;;;;26.95;24.35;;;21.40;69.70;;;;;;5127011;28;20023;-42
2021/07/05 12:18:26;;;;;;;27.10;24.52;;;21.40;69.70;;;;;;5127088;28;20056;-42
2021/07/05 12:20:57;;;;;;;28.03;25.33;;;21.40;69.80;;;;;;5126972;28;20032;-42
2021/07/05 12:23:31;;;;;;;26.73;24.02;;;21.40;69.90;;;;;;5126813;28;20028;-42
2021/07/05 12:25:57;;;;;;;26.65;24.08;;;21.40;69.90;;;;;;5126885;28;20053;-42
2021/07/05 12:28:23;;;;;;;29.08;26.20;;;21.40;69.90;;;;;;5125404;28;20110;-42
2021/07/05 12:30:50;;;;;;;26.90;24.27;;;21.40;70.60;;;;;;5126700;28;20053;-42
2021/07/05 12:33:22;;;;;;;;;;;21.40;70.00;;;;;;5126859;28;20043;-43
2021/07/05 12:35:48;;;;;;;26.88;24.30;;;21.40;69.90;;;;;;5108723;28;19904;-41
2021/07/05 12:38:17;;;;;;;27.50;24.85;;;21.50;70.20;;;;;;5108409;28;20027;-41
2021/07/05 12:40:43;;;;;;;28.13;25.40;;;21.40;70.00;;;;;;5126597;28;20028;-41